createdAt,value
2023-05-16T00:00:48.594Z,0.00
2023-05-16T00:01:48.625Z,0.00
2023-05-16T00:02:48.931Z,0.00
2023-05-16T00:03:48.785Z,0.00
2023-05-16T00:04:48.581Z,0.00
2023-05-16T00:05:48.608Z,0.00
2023-05-16T00:06:48.586Z,0.00
2023-05-16T00:07:48.587Z,0.00
2023-05-16T00:08:48.580Z,0.00
2023-05-16T00:09:48.585Z,0.00
2023-05-16T00:10:48.589Z,0.00
2023-05-16T00:11:48.590Z,0.00
2023-05-16T00:12:48.585Z,0.00
2023-05-16T00:13:48.587Z,0.00
2023-05-16T00:14:48.588Z,0.00
2023-05-16T00:15:48.584Z,0.00
2023-05-16T00:16:48.614Z,0.00
2023-05-16T00:17:48.645Z,0.00
2023-05-16T00:18:48.625Z,0.00
2023-05-16T00:19:48.594Z,0.00
2023-05-16T00:20:48.591Z,0.00
2023-05-16T00:21:48.612Z,0.00
2023-05-16T00:22:48.588Z,0.00
2023-05-16T00:23:48.605Z,0.00
2023-05-16T00:24:48.588Z,0.00
2023-05-16T00:25:48.599Z,0.00
2023-05-16T00:26:48.593Z,0.00
2023-05-16T00:27:48.604Z,0.00
2023-05-16T00:28:48.596Z,0.00
2023-05-16T00:29:48.597Z,0.00
2023-05-16T00:30:48.620Z,0.00
2023-05-16T00:31:48.680Z,0.00
2023-05-16T00:32:48.637Z,0.00
2023-05-16T00:33:48.613Z,0.00
2023-05-16T00:34:48.658Z,0.00
2023-05-16T00:35:48.599Z,0.00
2023-05-16T00:36:48.596Z,0.00
2023-05-16T00:37:48.620Z,0.00
2023-05-16T00:38:48.597Z,0.00
2023-05-16T00:39:48.606Z,0.00
2023-05-16T00:40:48.601Z,0.00
2023-05-16T00:41:48.603Z,0.00
2023-05-16T00:42:48.604Z,0.00
2023-05-16T00:43:48.620Z,0.00
2023-05-16T00:44:48.615Z,0.00
2023-05-16T00:45:48.642Z,0.00
2023-05-16T00:46:48.627Z,0.00
2023-05-16T00:47:48.650Z,0.00
2023-05-16T00:48:48.607Z,0.00
2023-05-16T00:49:48.614Z,0.00
2023-05-16T00:50:48.606Z,0.00
2023-05-16T00:51:48.610Z,0.00
2023-05-16T00:52:48.612Z,0.00
2023-05-16T00:53:48.631Z,0.00
2023-05-16T00:54:48.602Z,0.00
2023-05-16T00:55:48.619Z,0.00
2023-05-16T00:56:48.619Z,0.00
2023-05-16T00:57:48.612Z,0.00
2023-05-16T00:58:48.616Z,0.00
2023-05-16T00:59:48.613Z,0.00
2023-05-16T01:00:48.937Z,0.00
2023-05-16T01:01:48.675Z,0.00
2023-05-16T01:02:48.723Z,0.00
2023-05-16T01:03:48.967Z,0.00
2023-05-16T01:04:48.618Z,0.00
2023-05-16T01:05:48.612Z,0.00
2023-05-16T01:06:48.614Z,0.00
2023-05-16T01:07:48.607Z,0.00
2023-05-16T01:08:48.614Z,0.00
2023-05-16T01:09:48.641Z,0.00
2023-05-16T01:10:48.614Z,0.00
2023-05-16T01:11:48.611Z,0.00
2023-05-16T01:12:48.613Z,0.00
2023-05-16T01:13:48.617Z,0.00
2023-05-16T01:14:48.609Z,0.00
2023-05-16T01:15:48.652Z,0.00
2023-05-16T01:16:48.614Z,0.00
2023-05-16T01:17:48.644Z,0.00
2023-05-16T01:18:48.654Z,0.00
2023-05-16T01:19:48.624Z,0.00
2023-05-16T01:20:48.648Z,0.00
2023-05-16T01:21:48.610Z,0.00
2023-05-16T01:22:48.627Z,0.00
2023-05-16T01:23:48.624Z,0.00
2023-05-16T01:24:48.618Z,0.00
2023-05-16T01:25:48.641Z,0.00
2023-05-16T01:26:48.620Z,0.00
2023-05-16T01:27:48.610Z,0.00
2023-05-16T01:28:48.616Z,0.00
2023-05-16T01:29:48.618Z,0.00
2023-05-16T01:30:48.618Z,0.00
2023-05-16T01:31:48.642Z,0.00
2023-05-16T01:32:48.648Z,0.00
2023-05-16T01:33:48.615Z,0.00
2023-05-16T01:34:48.627Z,0.00
2023-05-16T01:35:48.623Z,0.00
2023-05-16T01:36:48.628Z,0.00
2023-05-16T01:37:48.621Z,0.00
2023-05-16T01:38:48.626Z,0.00
2023-05-16T01:39:48.624Z,0.00
2023-05-16T01:40:48.624Z,0.00
2023-05-16T01:41:48.699Z,0.00
2023-05-16T01:42:48.631Z,0.00
2023-05-16T01:43:48.640Z,0.00
2023-05-16T01:44:48.624Z,0.00
2023-05-16T01:45:48.634Z,0.00
2023-05-16T01:46:48.693Z,0.00
2023-05-16T01:47:48.686Z,0.00
2023-05-16T01:48:48.649Z,0.00
2023-05-16T01:49:48.635Z,0.00
2023-05-16T01:50:48.629Z,0.00
2023-05-16T01:51:48.628Z,0.00
2023-05-16T01:52:48.624Z,0.00
2023-05-16T01:53:48.620Z,0.00
2023-05-16T01:54:48.635Z,0.00
2023-05-16T01:55:48.630Z,0.00
2023-05-16T01:56:48.638Z,0.00
2023-05-16T01:57:48.644Z,0.00
2023-05-16T01:58:48.634Z,0.00
2023-05-16T01:59:48.626Z,0.00
2023-05-16T02:00:48.658Z,0.00
2023-05-16T02:01:48.624Z,0.00
2023-05-16T02:02:48.650Z,0.00
2023-05-16T02:03:48.673Z,0.00
2023-05-16T02:04:48.633Z,0.00
2023-05-16T02:05:48.625Z,0.00
2023-05-16T02:06:48.630Z,0.00
2023-05-16T02:07:48.629Z,0.00
2023-05-16T02:08:48.627Z,0.00
2023-05-16T02:09:48.639Z,0.00
2023-05-16T02:10:48.630Z,0.00
2023-05-16T02:11:48.629Z,0.00
2023-05-16T02:12:48.651Z,0.00
2023-05-16T02:13:48.660Z,0.00
2023-05-16T02:14:48.641Z,0.00
2023-05-16T02:15:48.637Z,0.00
2023-05-16T02:16:48.671Z,0.00
2023-05-16T02:17:48.882Z,0.00
2023-05-16T02:18:48.673Z,0.00
2023-05-16T02:19:48.629Z,0.00
2023-05-16T02:20:48.637Z,0.00
2023-05-16T02:21:48.632Z,0.00
2023-05-16T02:22:48.635Z,0.00
2023-05-16T02:23:48.634Z,0.00
2023-05-16T02:24:48.636Z,0.00
2023-05-16T02:25:48.644Z,0.00
2023-05-16T02:26:48.638Z,0.00
2023-05-16T02:27:48.633Z,0.00
2023-05-16T02:28:48.646Z,0.00
2023-05-16T02:29:48.729Z,0.00
2023-05-16T02:30:48.681Z,0.00
2023-05-16T02:31:48.639Z,0.00
2023-05-16T02:32:48.667Z,0.00
2023-05-16T02:33:48.636Z,0.00
2023-05-16T02:34:48.641Z,0.00
2023-05-16T02:35:48.636Z,0.00
2023-05-16T02:36:48.638Z,0.00
2023-05-16T02:37:48.642Z,0.00
2023-05-16T02:38:48.640Z,4.00
2023-05-16T02:39:48.659Z,4.00
2023-05-16T02:40:48.645Z,4.00
2023-05-16T02:41:48.637Z,4.00
2023-05-16T02:42:48.645Z,0.00
2023-05-16T02:43:48.638Z,0.00
2023-05-16T02:44:48.654Z,0.00
2023-05-16T02:45:48.712Z,4.00
2023-05-16T02:46:48.733Z,4.00
2023-05-16T02:47:48.693Z,4.00
2023-05-16T02:48:48.641Z,0.00
2023-05-16T02:49:48.642Z,4.00
2023-05-16T02:50:48.658Z,4.00
2023-05-16T02:51:48.644Z,4.00
2023-05-16T02:52:48.655Z,4.00
2023-05-16T02:53:48.643Z,4.00
2023-05-16T02:54:59.892Z,8.00
2023-05-16T02:55:48.647Z,8.00
2023-05-16T02:56:48.645Z,4.00
2023-05-16T02:57:48.657Z,8.00
2023-05-16T02:58:48.642Z,8.00
2023-05-16T02:59:48.649Z,12.00
2023-05-16T03:00:48.641Z,16.00
2023-05-16T03:01:48.687Z,12.00
2023-05-16T03:02:48.754Z,12.00
2023-05-16T03:03:48.728Z,16.00
2023-05-16T03:04:48.645Z,20.00
2023-05-16T03:05:48.964Z,24.00
2023-05-16T03:06:48.643Z,24.00
2023-05-16T03:07:48.642Z,28.00
2023-05-16T03:08:48.641Z,28.00
2023-05-16T03:09:48.641Z,28.00
2023-05-16T03:10:48.644Z,36.00
2023-05-16T03:11:48.645Z,40.00
2023-05-16T03:12:48.649Z,36.00
2023-05-16T03:13:48.649Z,44.00
2023-05-16T03:14:48.644Z,48.00
2023-05-16T03:15:48.662Z,52.00
2023-05-16T03:16:48.740Z,68.00
2023-05-16T03:17:48.702Z,64.00
2023-05-16T03:18:48.681Z,60.00
2023-05-16T03:19:48.644Z,68.00
2023-05-16T03:20:48.646Z,76.00
2023-05-16T03:21:48.643Z,84.00
2023-05-16T03:22:48.650Z,96.00
2023-05-16T03:23:48.647Z,92.00
2023-05-16T03:24:48.694Z,96.00
2023-05-16T03:25:48.651Z,108.00
2023-05-16T03:26:48.650Z,100.00
2023-05-16T03:27:48.652Z,112.00
2023-05-16T03:28:48.650Z,108.00
2023-05-16T03:29:48.648Z,100.00
2023-05-16T03:30:48.658Z,100.00
2023-05-16T03:31:48.677Z,104.00
2023-05-16T03:32:48.678Z,124.00
2023-05-16T03:33:48.679Z,108.00
2023-05-16T03:34:48.665Z,116.00
2023-05-16T03:35:48.648Z,120.00
2023-05-16T03:36:48.650Z,132.00
2023-05-16T03:37:48.649Z,144.00
2023-05-16T03:38:48.660Z,164.00
2023-05-16T03:39:48.649Z,156.00
2023-05-16T03:40:48.651Z,156.00
2023-05-16T03:41:48.652Z,160.00
2023-05-16T03:42:48.660Z,176.00
2023-05-16T03:43:48.652Z,160.00
2023-05-16T03:44:48.651Z,180.00
2023-05-16T03:45:48.692Z,176.00
2023-05-16T03:46:48.657Z,192.00
2023-05-16T03:47:48.665Z,200.00
2023-05-16T03:48:48.664Z,192.00
2023-05-16T03:49:48.669Z,224.00
2023-05-16T03:50:48.657Z,284.00
2023-05-16T03:51:48.654Z,308.00
2023-05-16T03:52:48.657Z,364.00
2023-05-16T03:53:48.649Z,324.00
2023-05-16T03:54:48.663Z,332.00
2023-05-16T03:55:48.957Z,388.00
2023-05-16T03:56:48.671Z,416.00
2023-05-16T03:57:48.654Z,352.00
2023-05-16T03:58:48.683Z,356.00
2023-05-16T03:59:48.655Z,316.00
2023-05-16T04:00:48.658Z,372.00
2023-05-16T04:01:48.722Z,396.00
2023-05-16T04:02:48.774Z,372.00
2023-05-16T04:03:48.660Z,292.00
2023-05-16T04:04:48.655Z,292.00
2023-05-16T04:05:48.730Z,340.00
2023-05-16T04:06:48.655Z,312.00
2023-05-16T04:07:48.658Z,264.00
2023-05-16T04:08:48.656Z,240.00
2023-05-16T04:09:48.660Z,260.00
2023-05-16T04:10:48.656Z,308.00
2023-05-16T04:11:48.649Z,272.00
2023-05-16T04:12:48.656Z,264.00
2023-05-16T04:13:48.797Z,280.00
2023-05-16T04:14:48.663Z,268.00
2023-05-16T04:15:48.653Z,284.00
2023-05-16T04:16:48.666Z,284.00
2023-05-16T04:17:48.740Z,296.00
2023-05-16T04:18:48.695Z,296.00
2023-05-16T04:19:48.664Z,336.00
2023-05-16T04:20:48.653Z,320.00
2023-05-16T04:21:48.774Z,380.00
2023-05-16T04:22:48.659Z,412.00
2023-05-16T04:23:48.655Z,396.00
2023-05-16T04:24:48.664Z,368.00
2023-05-16T04:25:48.651Z,368.00
2023-05-16T04:26:48.667Z,344.00
2023-05-16T04:27:48.663Z,384.00
2023-05-16T04:28:48.661Z,452.00
2023-05-16T04:29:48.667Z,444.00
2023-05-16T04:30:48.665Z,496.00
2023-05-16T04:31:48.702Z,500.00
2023-05-16T04:32:48.725Z,424.00
2023-05-16T04:33:48.661Z,468.00
2023-05-16T04:34:48.662Z,460.00
2023-05-16T04:35:48.692Z,460.00
2023-05-16T04:36:48.655Z,436.00
2023-05-16T04:37:48.682Z,476.00
2023-05-16T04:38:48.666Z,504.00
2023-05-16T04:39:48.658Z,468.00
2023-05-16T04:40:48.689Z,484.00
2023-05-16T04:41:48.661Z,472.00
2023-05-16T04:42:48.670Z,428.00
2023-05-16T04:43:48.677Z,460.00
2023-05-16T04:44:48.670Z,488.00
2023-05-16T04:45:48.661Z,488.00
2023-05-16T04:46:48.843Z,536.00
2023-05-16T04:47:48.713Z,440.00
2023-05-16T04:48:48.661Z,516.00
2023-05-16T04:49:48.660Z,540.00
2023-05-16T04:50:48.668Z,596.00
2023-05-16T04:51:48.662Z,532.00
2023-05-16T04:52:48.663Z,476.00
2023-05-16T04:53:48.731Z,500.00
2023-05-16T04:54:48.661Z,484.00
2023-05-16T04:55:48.672Z,524.00
2023-05-16T04:56:48.663Z,600.00
2023-05-16T04:57:48.657Z,536.00
2023-05-16T04:58:48.670Z,504.00
2023-05-16T04:59:48.664Z,440.00
2023-05-16T05:00:48.662Z,504.00
2023-05-16T05:01:48.700Z,536.00
2023-05-16T05:02:48.702Z,472.00
2023-05-16T05:03:48.666Z,528.00
2023-05-16T05:04:48.682Z,584.00
2023-05-16T05:05:48.686Z,476.00
2023-05-16T05:06:48.671Z,548.00
2023-05-16T05:07:48.658Z,532.00
2023-05-16T05:08:48.659Z,528.00
2023-05-16T05:09:48.673Z,520.00
2023-05-16T05:10:48.667Z,508.00
2023-05-16T05:11:48.682Z,516.00
2023-05-16T05:12:48.665Z,580.00
2023-05-16T05:13:50.184Z,724.00
2023-05-16T05:14:48.668Z,648.00
2023-05-16T05:15:48.683Z,580.00
2023-05-16T05:16:48.759Z,544.00
2023-05-16T05:17:48.797Z,548.00
2023-05-16T05:18:48.860Z,536.00
2023-05-16T05:19:48.676Z,600.00
2023-05-16T05:20:48.661Z,648.00
2023-05-16T05:21:48.667Z,672.00
2023-05-16T05:22:48.664Z,720.00
2023-05-16T05:23:48.669Z,668.00
2023-05-16T05:24:48.660Z,664.00
2023-05-16T05:25:48.782Z,776.00
2023-05-16T05:26:48.659Z,728.00
2023-05-16T05:27:48.691Z,688.00
2023-05-16T05:28:57.484Z,752.00
2023-05-16T05:29:48.674Z,724.00
2023-05-16T05:30:48.663Z,728.00
2023-05-16T05:31:48.795Z,724.00
2023-05-16T05:32:48.724Z,716.00
2023-05-16T05:33:48.661Z,732.00
2023-05-16T05:34:48.678Z,772.00
2023-05-16T05:35:48.671Z,736.00
2023-05-16T05:36:48.668Z,748.00
2023-05-16T05:37:48.665Z,768.00
2023-05-16T05:38:48.662Z,760.00
2023-05-16T05:39:48.685Z,756.00
2023-05-16T05:40:48.659Z,740.00
2023-05-16T05:41:48.682Z,740.00
2023-05-16T05:42:48.659Z,756.00
2023-05-16T05:43:48.668Z,760.00
2023-05-16T05:44:48.658Z,772.00
2023-05-16T05:45:48.709Z,772.00
2023-05-16T05:46:48.659Z,752.00
2023-05-16T05:47:48.713Z,788.00
2023-05-16T05:48:48.715Z,800.00
2023-05-16T05:49:48.676Z,816.00
2023-05-16T05:50:48.654Z,876.00
2023-05-16T05:51:48.665Z,892.00
2023-05-16T05:52:48.668Z,876.00
2023-05-16T05:53:48.670Z,872.00
2023-05-16T05:54:48.681Z,900.00
2023-05-16T05:55:48.662Z,908.00
2023-05-16T05:56:48.676Z,984.00
2023-05-16T05:57:48.707Z,1120.00
2023-05-16T05:58:48.695Z,1184.00
2023-05-16T05:59:48.665Z,1452.00
2023-05-16T06:00:48.661Z,1488.00
2023-05-16T06:01:48.704Z,1612.00
2023-05-16T06:02:48.771Z,1504.00
2023-05-16T06:03:48.675Z,1540.00
2023-05-16T06:04:48.667Z,1396.00
2023-05-16T06:05:48.705Z,1364.00
2023-05-16T06:06:48.662Z,1288.00
2023-05-16T06:07:48.674Z,1328.00
2023-05-16T06:08:48.663Z,1472.00
2023-05-16T06:09:48.677Z,1552.00
2023-05-16T06:10:48.662Z,1608.00
2023-05-16T06:11:48.674Z,1728.00
2023-05-16T06:12:48.664Z,1736.00
2023-05-16T06:13:48.696Z,1700.00
2023-05-16T06:14:48.654Z,1704.00
2023-05-16T06:15:48.661Z,1604.00
2023-05-16T06:16:48.764Z,1632.00
2023-05-16T06:17:48.731Z,1712.00
2023-05-16T06:18:48.702Z,1528.00
2023-05-16T06:19:48.673Z,1424.00
2023-05-16T06:20:48.672Z,1360.00
2023-05-16T06:21:48.666Z,1364.00
2023-05-16T06:22:48.661Z,1348.00
2023-05-16T06:23:48.670Z,1284.00
2023-05-16T06:24:48.664Z,1232.00
2023-05-16T06:25:48.688Z,1240.00
2023-05-16T06:26:48.663Z,1232.00
2023-05-16T06:27:48.658Z,1216.00
2023-05-16T06:28:48.662Z,1264.00
2023-05-16T06:29:48.772Z,1320.00
2023-05-16T06:30:48.660Z,1332.00
2023-05-16T06:31:48.735Z,1340.00
2023-05-16T06:32:48.698Z,1332.00
2023-05-16T06:33:48.662Z,1328.00
2023-05-16T06:34:48.664Z,1384.00
2023-05-16T06:35:48.682Z,1408.00
2023-05-16T06:36:48.665Z,1380.00
2023-05-16T06:37:48.669Z,1548.00
2023-05-16T06:38:48.667Z,1696.00
2023-05-16T06:39:48.724Z,1808.00
2023-05-16T06:40:48.660Z,1864.00
2023-05-16T06:41:48.671Z,1816.00
2023-05-16T06:42:48.662Z,1920.00
2023-05-16T06:43:48.672Z,1948.00
2023-05-16T06:44:48.661Z,1844.00
2023-05-16T06:45:48.689Z,1952.00
2023-05-16T06:46:48.686Z,2000.00
2023-05-16T06:47:48.711Z,2364.00
2023-05-16T06:48:48.662Z,2192.00
2023-05-16T06:49:48.668Z,2088.00
2023-05-16T06:50:48.664Z,2056.00
2023-05-16T06:51:48.676Z,1936.00
2023-05-16T06:52:48.663Z,1924.00
2023-05-16T06:53:48.665Z,2084.00
2023-05-16T06:54:48.669Z,2092.00
2023-05-16T06:55:48.672Z,2256.00
2023-05-16T06:56:48.680Z,2468.00
2023-05-16T06:57:48.686Z,2568.00
2023-05-16T06:58:48.674Z,1436.00
2023-05-16T06:59:48.670Z,1548.00
2023-05-16T07:00:48.691Z,1360.00
2023-05-16T07:01:48.797Z,2128.00
2023-05-16T07:02:48.759Z,2032.00
2023-05-16T07:03:48.761Z,1992.00
2023-05-16T07:04:48.664Z,1996.00
2023-05-16T07:05:48.673Z,2080.00
2023-05-16T07:06:48.666Z,2008.00
2023-05-16T07:07:48.677Z,2028.00
2023-05-16T07:08:48.663Z,2192.00
2023-05-16T07:09:48.673Z,2116.00
2023-05-16T07:10:48.662Z,2120.00
2023-05-16T07:11:48.666Z,2224.00
2023-05-16T07:12:48.672Z,2336.00
2023-05-16T07:13:48.667Z,2244.00
2023-05-16T07:14:48.676Z,2120.00
2023-05-16T07:15:48.673Z,2156.00
2023-05-16T07:16:48.728Z,2120.00
2023-05-16T07:17:48.808Z,2192.00
2023-05-16T07:18:48.675Z,2176.00
2023-05-16T07:19:48.681Z,2068.00
2023-05-16T07:20:48.669Z,2120.00
2023-05-16T07:21:48.679Z,2112.00
2023-05-16T07:22:48.670Z,2192.00
2023-05-16T07:23:48.690Z,2268.00
2023-05-16T07:24:48.671Z,2172.00
2023-05-16T07:25:48.673Z,2332.00
2023-05-16T07:26:48.667Z,2716.00
2023-05-16T07:27:48.669Z,2584.00
2023-05-16T07:28:48.663Z,2404.00
2023-05-16T07:29:48.672Z,2476.00
2023-05-16T07:30:48.679Z,2688.00
2023-05-16T07:31:48.869Z,2772.00
2023-05-16T07:32:48.732Z,2804.00
2023-05-16T07:33:48.733Z,2736.00
2023-05-16T07:34:48.687Z,2788.00
2023-05-16T07:35:48.677Z,2764.00
2023-05-16T07:36:48.675Z,2684.00
2023-05-16T07:37:48.676Z,2572.00
2023-05-16T07:38:48.668Z,2592.00
2023-05-16T07:39:48.692Z,2892.00
2023-05-16T07:40:48.666Z,3020.00
2023-05-16T07:41:48.677Z,2976.00
2023-05-16T07:42:48.667Z,2880.00
2023-05-16T07:43:48.677Z,2696.00
2023-05-16T07:44:48.664Z,2528.00
2023-05-16T07:45:48.684Z,2640.00
2023-05-16T07:46:48.675Z,2792.00
2023-05-16T07:47:48.717Z,2864.00
2023-05-16T07:48:48.667Z,2776.00
2023-05-16T07:49:48.695Z,2628.00
2023-05-16T07:50:48.665Z,2668.00
2023-05-16T07:51:48.666Z,2792.00
2023-05-16T07:52:48.663Z,2808.00
2023-05-16T07:53:48.669Z,2968.00
2023-05-16T07:54:48.665Z,3448.00
2023-05-16T07:55:48.679Z,3664.00
2023-05-16T07:56:48.667Z,3392.00
2023-05-16T07:57:48.671Z,3232.00
2023-05-16T07:58:48.676Z,3272.00
2023-05-16T07:59:48.715Z,3472.00
2023-05-16T08:00:48.701Z,3296.00
2023-05-16T08:01:48.679Z,3356.00
2023-05-16T08:02:48.806Z,3544.00
2023-05-16T08:03:48.739Z,3520.00
2023-05-16T08:04:48.678Z,3468.00
2023-05-16T08:05:48.816Z,3644.00
2023-05-16T08:06:48.679Z,3368.00
2023-05-16T08:07:48.665Z,3620.00
2023-05-16T08:08:48.672Z,3416.00
2023-05-16T08:09:48.676Z,3152.00
2023-05-16T08:10:48.670Z,3396.00
2023-05-16T08:11:48.679Z,3084.00
2023-05-16T08:12:48.694Z,2752.00
2023-05-16T08:13:48.680Z,2768.00
2023-05-16T08:14:48.674Z,2684.00
2023-05-16T08:15:48.725Z,2704.00
2023-05-16T08:16:48.690Z,2672.00
2023-05-16T08:17:48.775Z,2688.00
2023-05-16T08:18:48.743Z,2704.00
2023-05-16T08:19:48.736Z,2724.00
2023-05-16T08:20:48.674Z,2760.00
2023-05-16T08:21:48.770Z,2780.00
2023-05-16T08:22:48.677Z,2740.00
2023-05-16T08:23:48.687Z,2764.00
2023-05-16T08:24:48.678Z,2780.00
2023-05-16T08:25:48.683Z,2860.00
2023-05-16T08:26:48.683Z,3024.00
2023-05-16T08:27:48.701Z,3232.00
2023-05-16T08:28:48.677Z,3308.00
2023-05-16T08:29:48.702Z,3172.00
2023-05-16T08:30:48.684Z,3100.00
2023-05-16T08:31:48.795Z,3120.00
2023-05-16T08:32:48.688Z,3176.00
2023-05-16T08:33:48.683Z,3140.00
2023-05-16T08:34:48.698Z,2916.00
2023-05-16T08:35:48.680Z,2804.00
2023-05-16T08:36:48.679Z,2920.00
2023-05-16T08:37:48.789Z,3032.00
2023-05-16T08:38:48.679Z,2964.00
2023-05-16T08:39:48.687Z,2956.00
2023-05-16T08:40:48.695Z,3076.00
2023-05-16T08:41:48.684Z,3212.00
2023-05-16T08:42:48.681Z,3372.00
2023-05-16T08:43:48.699Z,3344.00
2023-05-16T08:44:48.682Z,3096.00
2023-05-16T08:45:48.685Z,3092.00
2023-05-16T08:46:48.755Z,3308.00
2023-05-16T08:47:48.721Z,3460.00
2023-05-16T08:48:48.689Z,3608.00
2023-05-16T08:49:48.692Z,3484.00
2023-05-16T08:50:48.683Z,3356.00
2023-05-16T08:51:48.686Z,3372.00
2023-05-16T08:52:48.687Z,3496.00
2023-05-16T08:53:48.717Z,3516.00
2023-05-16T08:54:58.659Z,3404.00
2023-05-16T08:55:48.698Z,3188.00
2023-05-16T08:56:48.713Z,3048.00
2023-05-16T08:57:48.700Z,3144.00
2023-05-16T08:58:48.691Z,3212.00
2023-05-16T08:59:48.688Z,2952.00
2023-05-16T09:00:48.700Z,2784.00
2023-05-16T09:01:48.757Z,2932.00
2023-05-16T09:02:48.722Z,3148.00
2023-05-16T09:03:48.745Z,3328.00
2023-05-16T09:04:48.696Z,3256.00
2023-05-16T09:05:48.701Z,3156.00
2023-05-16T09:06:48.689Z,3224.00
2023-05-16T09:07:48.695Z,3176.00
2023-05-16T09:08:48.693Z,3180.00
2023-05-16T09:09:48.745Z,3200.00
2023-05-16T09:10:48.692Z,3108.00
2023-05-16T09:11:48.699Z,3092.00
2023-05-16T09:12:48.704Z,2956.00
2023-05-16T09:13:48.698Z,2820.00
2023-05-16T09:14:48.694Z,2780.00
2023-05-16T09:15:48.707Z,2768.00
2023-05-16T09:16:48.738Z,2924.00
2023-05-16T09:17:48.856Z,2976.00
2023-05-16T09:18:48.729Z,2844.00
2023-05-16T09:19:48.698Z,2776.00
2023-05-16T09:20:48.705Z,2824.00
2023-05-16T09:21:48.698Z,2856.00
2023-05-16T09:22:48.704Z,2928.00
2023-05-16T09:23:48.704Z,3076.00
2023-05-16T09:24:48.708Z,3108.00
2023-05-16T09:25:48.757Z,3072.00
2023-05-16T09:26:48.702Z,3116.00
2023-05-16T09:27:48.707Z,3168.00
2023-05-16T09:28:48.707Z,3188.00
2023-05-16T09:29:48.708Z,3120.00
2023-05-16T09:30:48.734Z,3140.00
2023-05-16T09:31:48.734Z,3176.00
2023-05-16T09:32:48.771Z,3124.00
2023-05-16T09:33:48.706Z,3084.00
2023-05-16T09:34:48.720Z,3020.00
2023-05-16T09:35:49.066Z,2940.00
2023-05-16T09:36:48.738Z,2900.00
2023-05-16T09:37:48.706Z,2836.00
2023-05-16T09:38:48.704Z,2804.00
2023-05-16T09:39:48.713Z,2868.00
2023-05-16T09:40:48.736Z,2968.00
2023-05-16T09:41:48.744Z,3100.00
2023-05-16T09:42:48.710Z,3224.00
2023-05-16T09:43:48.732Z,3176.00
2023-05-16T09:44:48.736Z,3188.00
2023-05-16T09:45:48.770Z,3220.00
2023-05-16T09:46:48.798Z,3124.00
2023-05-16T09:47:48.951Z,3108.00
2023-05-16T09:48:48.714Z,3216.00
2023-05-16T09:49:48.710Z,3152.00
2023-05-16T09:50:48.718Z,3096.00
2023-05-16T09:51:48.716Z,3480.00
2023-05-16T09:52:48.713Z,3840.00
2023-05-16T09:53:48.709Z,4024.00
2023-05-16T09:54:48.715Z,4000.00
2023-05-16T09:55:48.710Z,3504.00
2023-05-16T09:56:48.716Z,3312.00
2023-05-16T09:57:48.828Z,3552.00
2023-05-16T09:58:48.706Z,3856.00
2023-05-16T09:59:48.726Z,4188.00
2023-05-16T10:00:48.727Z,4116.00
2023-05-16T10:01:48.754Z,3552.00
2023-05-16T10:02:49.066Z,3492.00
2023-05-16T10:03:48.831Z,3768.00
2023-05-16T10:04:48.725Z,4072.00
2023-05-16T10:05:48.708Z,4284.00
2023-05-16T10:06:48.716Z,4200.00
2023-05-16T10:07:48.718Z,4508.00
2023-05-16T10:08:48.717Z,4800.00
2023-05-16T10:09:48.713Z,4972.00
2023-05-16T10:10:48.718Z,4744.00
2023-05-16T10:11:48.720Z,4428.00
2023-05-16T10:12:48.721Z,4500.00
2023-05-16T10:13:48.737Z,4608.00
2023-05-16T10:14:48.721Z,4468.00
2023-05-16T10:15:48.767Z,4516.00
2023-05-16T10:16:48.840Z,4520.00
2023-05-16T10:17:48.750Z,4728.00
2023-05-16T10:18:48.721Z,4436.00
2023-05-16T10:19:48.723Z,4552.00
2023-05-16T10:20:48.720Z,4572.00
2023-05-16T10:21:48.719Z,4680.00
2023-05-16T10:22:48.728Z,4628.00
2023-05-16T10:23:48.790Z,4644.00
2023-05-16T10:24:48.728Z,5348.00
2023-05-16T10:25:48.717Z,5308.00
2023-05-16T10:26:48.717Z,4636.00
2023-05-16T10:27:48.725Z,4584.00
2023-05-16T10:28:48.724Z,4276.00
2023-05-16T10:30:48.737Z,4560.00
2023-05-16T10:31:48.755Z,4628.00
2023-05-16T10:32:48.752Z,4660.00
2023-05-16T10:33:48.719Z,3952.00
2023-05-16T10:34:48.740Z,3888.00
2023-05-16T10:35:48.726Z,4132.00
2023-05-16T10:36:48.727Z,4184.00
2023-05-16T10:37:48.728Z,4572.00
2023-05-16T10:38:48.740Z,4900.00
2023-05-16T10:39:48.724Z,4804.00
2023-05-16T10:40:48.752Z,4900.00
2023-05-16T10:41:48.739Z,5120.00
2023-05-16T10:42:48.732Z,5152.00
2023-05-16T10:43:48.723Z,5240.00
2023-05-16T10:45:02.023Z,4964.00
2023-05-16T10:45:49.039Z,4540.00
2023-05-16T10:46:48.742Z,4264.00
2023-05-16T10:47:48.811Z,4020.00
2023-05-16T10:48:50.409Z,4164.00
2023-05-16T10:49:48.728Z,4800.00
2023-05-16T10:50:48.730Z,5008.00
2023-05-16T10:51:48.726Z,4792.00
2023-05-16T10:52:48.727Z,4424.00
2023-05-16T10:53:48.744Z,4132.00
2023-05-16T10:54:48.733Z,3908.00
2023-05-16T10:55:48.736Z,3608.00
2023-05-16T10:56:48.729Z,3428.00
2023-05-16T10:57:48.735Z,3652.00
2023-05-16T10:58:48.736Z,4916.00
2023-05-16T10:59:48.733Z,7836.00
2023-05-16T11:00:48.745Z,10424.00
2023-05-16T11:01:49.165Z,6696.00
2023-05-16T11:02:48.819Z,5308.00
2023-05-16T11:03:48.771Z,4560.00
2023-05-16T11:04:48.739Z,4472.00
2023-05-16T11:05:48.738Z,4440.00
2023-05-16T11:06:48.752Z,3984.00
2023-05-16T11:07:48.941Z,3460.00
2023-05-16T11:08:48.740Z,3124.00
2023-05-16T11:09:48.740Z,2872.00
2023-05-16T11:10:48.744Z,2636.00
2023-05-16T11:11:49.656Z,2552.00
2023-05-16T11:12:48.742Z,2452.00
2023-05-16T11:13:48.738Z,2476.00
2023-05-16T11:14:48.746Z,2512.00
2023-05-16T11:15:48.740Z,2452.00
2023-05-16T11:16:48.751Z,2352.00
2023-05-16T11:17:48.800Z,2356.00
2023-05-16T11:18:48.780Z,2352.00
2023-05-16T11:19:48.748Z,2228.00
2023-05-16T11:20:48.749Z,2224.00
2023-05-16T11:21:48.743Z,2292.00
2023-05-16T11:22:48.757Z,2268.00
2023-05-16T11:23:48.747Z,2220.00
2023-05-16T11:24:48.759Z,2168.00
2023-05-16T11:25:48.833Z,2144.00
2023-05-16T11:26:48.748Z,2164.00
2023-05-16T11:27:48.778Z,2212.00
2023-05-16T11:28:48.750Z,2260.00
2023-05-16T11:29:48.751Z,2336.00
2023-05-16T11:30:48.752Z,2320.00
2023-05-16T11:31:48.813Z,2412.00
2023-05-16T11:32:48.977Z,2640.00
2023-05-16T11:33:48.803Z,2560.00
2023-05-16T11:34:48.759Z,2628.00
2023-05-16T11:35:48.750Z,2944.00
2023-05-16T11:36:48.755Z,3112.00
2023-05-16T11:37:48.762Z,3256.00
2023-05-16T11:38:48.760Z,3428.00
2023-05-16T11:39:48.839Z,3772.00
2023-05-16T11:40:48.760Z,4228.00
2023-05-16T11:41:48.957Z,4560.00
2023-05-16T11:42:48.782Z,4960.00
2023-05-16T11:43:48.763Z,5280.00
2023-05-16T11:44:48.767Z,5376.00
2023-05-16T11:45:48.757Z,5592.00
2023-05-16T11:46:48.838Z,5956.00
2023-05-16T11:47:48.855Z,6124.00
2023-05-16T11:48:48.764Z,6176.00
2023-05-16T11:49:49.635Z,6340.00
2023-05-16T11:50:48.800Z,6316.00
2023-05-16T11:51:48.784Z,6320.00
2023-05-16T11:52:48.774Z,5888.00
2023-05-16T11:53:48.775Z,5164.00
2023-05-16T11:54:48.772Z,5080.00
2023-05-16T11:55:52.390Z,4872.00
2023-05-16T11:56:48.767Z,4704.00
2023-05-16T11:57:48.770Z,4788.00
2023-05-16T11:58:48.769Z,4480.00
2023-05-16T11:59:48.778Z,4076.00
2023-05-16T12:00:48.791Z,3768.00
2023-05-16T12:01:48.779Z,3496.00
2023-05-16T12:02:48.938Z,3608.00
2023-05-16T12:03:48.938Z,3804.00
2023-05-16T12:04:48.973Z,4228.00
2023-05-16T12:05:48.866Z,4648.00
2023-05-16T12:06:48.789Z,5480.00
2023-05-16T12:07:48.776Z,6520.00
2023-05-16T12:08:48.786Z,6684.00
2023-05-16T12:09:48.776Z,6872.00
2023-05-16T12:10:48.781Z,6984.00
2023-05-16T12:11:48.777Z,6468.00
2023-05-16T12:12:48.783Z,6000.00
2023-05-16T12:13:48.782Z,5660.00
2023-05-16T12:14:49.029Z,5192.00
2023-05-16T12:15:48.786Z,4848.00
2023-05-16T12:16:48.815Z,4392.00
2023-05-16T12:17:48.822Z,3876.00
2023-05-16T12:18:48.818Z,3668.00
2023-05-16T12:19:48.781Z,3556.00
2023-05-16T12:20:48.790Z,3400.00
2023-05-16T12:21:48.830Z,3252.00
2023-05-16T12:22:48.792Z,3356.00
2023-05-16T12:23:48.795Z,3544.00
2023-05-16T12:24:48.798Z,3708.00
2023-05-16T12:25:48.792Z,3672.00
2023-05-16T12:26:48.801Z,3600.00
2023-05-16T12:27:48.795Z,3488.00
2023-05-16T12:28:48.789Z,3392.00
2023-05-16T12:29:48.792Z,3396.00